createdAt,value
2023-04-13T00:04:42.888Z,4.78
2023-04-13T00:09:47.162Z,4.75
2023-04-13T00:14:50.835Z,4.70
2023-04-13T00:19:57.621Z,4.83
2023-04-13T00:24:59.798Z,4.82
2023-04-13T00:30:01.638Z,5.06
2023-04-13T00:35:07.267Z,5.21
2023-04-13T00:40:09.584Z,5.21
2023-04-13T00:45:13.480Z,5.24
2023-04-13T00:50:18.409Z,5.23
2023-04-13T00:55:25.014Z,5.10
2023-04-13T01:00:29.009Z,5.07
2023-04-13T01:05:37.551Z,4.93
2023-04-13T01:10:52.382Z,4.83
2023-04-13T01:16:02.164Z,4.79
2023-04-13T01:21:04.653Z,4.70
2023-04-13T01:26:08.858Z,4.72
2023-04-13T01:31:13.904Z,4.75
2023-04-13T01:36:17.050Z,4.87
2023-04-13T01:41:19.784Z,5.00
2023-04-13T01:46:26.539Z,5.01
2023-04-13T01:51:42.767Z,5.00
2023-04-13T01:56:48.258Z,5.06
2023-04-13T02:01:49.965Z,5.07
2023-04-13T02:06:51.740Z,5.15
2023-04-13T02:11:59.888Z,5.18
2023-04-13T02:17:01.504Z,5.11
2023-04-13T02:22:03.169Z,5.09
2023-04-13T02:27:04.741Z,5.17
2023-04-13T02:32:07.904Z,5.41
2023-04-13T02:37:09.645Z,5.53
2023-04-13T02:42:12.097Z,5.62
2023-04-13T02:47:13.673Z,5.74
2023-04-13T02:52:15.728Z,6.09
2023-04-13T02:57:28.487Z,6.24
2023-04-13T03:02:31.851Z,6.30
2023-04-13T03:07:34.208Z,6.42
2023-04-13T03:12:36.880Z,6.45
2023-04-13T03:17:41.417Z,6.52
2023-04-13T03:22:45.306Z,6.57
2023-04-13T03:27:47.110Z,6.62
2023-04-13T03:32:52.489Z,6.66
2023-04-13T03:37:57.348Z,6.65
2023-04-13T03:43:06.511Z,6.65
2023-04-13T03:48:11.926Z,6.67
2023-04-13T03:53:13.632Z,6.70
2023-04-13T03:58:18.853Z,6.72
2023-04-13T04:03:22.314Z,6.75
2023-04-13T04:08:33.295Z,6.77
2023-04-13T04:13:39.128Z,6.78
2023-04-13T04:18:47.628Z,6.79
2023-04-13T04:23:52.273Z,6.79
2023-04-13T04:29:02.305Z,6.79
2023-04-13T04:34:05.875Z,6.78
2023-04-13T04:39:10.046Z,6.83
2023-04-13T04:44:24.991Z,6.85
2023-04-13T04:49:28.162Z,6.87
2023-04-13T04:54:30.557Z,6.85
2023-04-13T04:59:32.178Z,6.88
2023-04-13T05:04:38.873Z,6.94
2023-04-13T05:09:42.186Z,6.98
2023-04-13T05:14:48.595Z,7.03
2023-04-13T05:19:52.857Z,7.08
2023-04-13T05:24:58.548Z,7.09
2023-04-13T05:30:03.528Z,7.10
2023-04-13T05:35:06.119Z,7.09
2023-04-13T05:40:11.943Z,7.14
2023-04-13T05:45:16.771Z,7.19
2023-04-13T05:50:33.062Z,7.28
2023-04-13T05:55:35.425Z,7.30
2023-04-13T06:00:39.983Z,7.35
2023-04-13T06:05:46.895Z,7.39
2023-04-13T06:10:49.916Z,7.35
2023-04-13T06:15:52.846Z,7.30
2023-04-13T06:20:55.251Z,7.28
2023-04-13T06:25:57.679Z,7.29
2023-04-13T06:31:16.682Z,7.53
2023-04-13T06:36:21.077Z,7.73
2023-04-13T06:41:23.124Z,7.91
2023-04-13T06:46:25.807Z,8.10
2023-04-13T06:51:32.046Z,8.36
2023-04-13T06:56:34.449Z,8.73
2023-04-13T07:01:36.190Z,9.04
2023-04-13T07:06:38.838Z,9.24
2023-04-13T07:11:41.114Z,9.35
2023-04-13T07:16:42.782Z,9.77
2023-04-13T07:21:44.342Z,9.96
2023-04-13T07:26:46.365Z,10.02
2023-04-13T07:31:48.531Z,10.38
2023-04-13T07:36:50.498Z,10.73
2023-04-13T07:41:56.519Z,11.26
2023-04-13T07:47:14.054Z,10.95
2023-04-13T07:52:19.363Z,11.20
2023-04-13T07:57:22.349Z,11.76
2023-04-13T08:02:30.791Z,12.19
2023-04-13T08:07:34.014Z,12.71
2023-04-13T08:12:36.743Z,12.74
2023-04-13T08:17:38.706Z,12.34
2023-04-13T08:22:41.265Z,11.21
2023-04-13T08:27:43.253Z,10.04
2023-04-13T08:32:48.400Z,9.38
2023-04-13T08:37:50.486Z,9.28
2023-04-13T08:42:55.426Z,9.36
2023-04-13T08:47:58.829Z,9.80
2023-04-13T08:53:01.008Z,9.93
2023-04-13T08:58:04.154Z,9.69
2023-04-13T09:03:09.698Z,9.46
2023-04-13T09:08:19.699Z,9.42
2023-04-13T09:13:22.795Z,8.63
2023-04-13T09:18:24.559Z,8.27
2023-04-13T09:23:32.569Z,8.49
2023-04-13T09:28:34.301Z,9.36
2023-04-13T09:33:47.293Z,10.02
2023-04-13T09:38:56.110Z,9.97
2023-04-13T09:44:00.687Z,9.85
2023-04-13T09:49:25.576Z,9.91
2023-04-13T09:54:28.524Z,10.44
2023-04-13T09:59:32.504Z,11.35
2023-04-13T10:04:34.715Z,11.61
2023-04-13T10:09:36.708Z,12.07
2023-04-13T10:14:41.037Z,12.01
2023-04-13T10:19:48.388Z,12.27
2023-04-13T10:24:52.417Z,12.80
2023-04-13T10:29:55.144Z,13.16
2023-04-13T10:34:56.980Z,13.82
2023-04-13T10:40:10.384Z,13.81
2023-04-13T10:45:26.606Z,14.08
2023-04-13T10:50:28.375Z,13.77
2023-04-13T10:55:30.316Z,14.06
2023-04-13T11:00:45.624Z,13.71
2023-04-13T11:05:56.557Z,13.96
2023-04-13T11:10:58.084Z,13.78
2023-04-13T11:16:06.805Z,14.29
2023-04-13T11:21:16.397Z,14.85
2023-04-13T11:26:17.922Z,14.75
2023-04-13T11:31:19.453Z,14.95
2023-04-13T11:36:23.657Z,15.69
2023-04-13T11:41:27.231Z,15.22
2023-04-13T11:46:29.141Z,14.32
2023-04-13T11:51:32.441Z,13.69
2023-04-13T11:56:34.197Z,13.76
2023-04-13T12:01:36.693Z,14.51
2023-04-13T12:06:44.320Z,15.49
2023-04-13T12:11:50.275Z,15.83
2023-04-13T12:17:06.260Z,15.84
2023-04-13T12:22:20.468Z,15.23
2023-04-13T12:27:22.139Z,14.19
2023-04-13T12:32:24.900Z,12.73
2023-04-13T12:37:26.523Z,11.16
2023-04-13T12:42:28.400Z,11.56
2023-04-13T12:47:29.962Z,12.69
2023-04-13T12:52:32.396Z,13.20
2023-04-13T12:57:34.306Z,13.32
2023-04-13T13:02:36.486Z,13.23
2023-04-13T13:07:40.719Z,12.90
2023-04-13T13:12:42.495Z,13.12
2023-04-13T13:17:44.255Z,13.10
2023-04-13T13:22:47.240Z,12.89
2023-04-13T13:32:53.287Z,12.38
2023-04-13T13:37:57.306Z,12.32
2023-04-13T13:42:59.134Z,12.70
2023-04-13T13:48:04.963Z,13.06
2023-04-13T13:53:14.471Z,13.39
2023-04-13T13:58:17.214Z,13.63
2023-04-13T14:03:19.016Z,13.73
2023-04-13T14:08:20.761Z,13.67
2023-04-13T14:13:23.245Z,13.52
2023-04-13T14:18:25.005Z,13.53
2023-04-13T14:23:26.573Z,13.89
2023-04-13T14:28:28.133Z,13.61
2023-04-13T14:33:29.641Z,13.64
2023-04-13T14:38:31.173Z,13.68
2023-04-13T14:43:32.738Z,13.72
2023-04-13T14:48:34.262Z,13.98
2023-04-13T14:53:35.973Z,14.04
2023-04-13T14:58:37.634Z,13.96
2023-04-13T15:03:39.602Z,13.83
2023-04-13T15:08:41.503Z,13.82
2023-04-13T15:13:45.199Z,13.61
2023-04-13T15:18:46.799Z,13.51
2023-04-13T15:23:48.321Z,13.61
2023-04-13T15:28:49.862Z,13.87
2023-04-13T15:33:51.825Z,13.68
2023-04-13T15:38:53.692Z,13.24
2023-04-13T15:44:02.144Z,13.15
2023-04-13T15:49:03.804Z,12.82
2023-04-13T15:54:05.558Z,12.56
2023-04-13T15:59:07.156Z,12.39
2023-04-13T16:04:08.765Z,10.08
2023-04-13T16:09:10.731Z,8.35
2023-04-13T16:14:17.516Z,8.27
2023-04-13T16:19:20.969Z,8.82
2023-04-13T16:24:23.050Z,9.06
2023-04-13T16:29:24.871Z,9.21
2023-04-13T16:34:27.950Z,9.27
2023-04-13T16:39:29.488Z,9.41
2023-04-13T16:44:31.060Z,9.24
2023-04-13T16:49:33.494Z,9.17
2023-04-13T16:54:35.066Z,9.24
2023-04-13T16:59:36.577Z,9.29
2023-04-13T17:04:38.481Z,9.42
2023-04-13T17:09:40.022Z,9.48
2023-04-13T17:14:41.564Z,9.46
2023-04-13T17:19:43.217Z,9.38
2023-04-13T17:24:44.755Z,9.60
2023-04-13T17:29:46.351Z,9.90
2023-04-13T17:34:48.727Z,9.87
2023-04-13T17:39:51.427Z,9.71
2023-04-13T17:44:58.881Z,9.53
2023-04-13T17:50:00.739Z,9.37
2023-04-13T17:55:02.253Z,9.21
2023-04-13T18:00:04.249Z,9.01
2023-04-13T18:05:07.275Z,8.78
2023-04-13T18:10:09.357Z,8.53
2023-04-13T18:15:10.994Z,8.34
2023-04-13T18:20:12.629Z,8.31
2023-04-13T18:25:14.223Z,8.32
2023-04-13T18:30:28.917Z,8.31
2023-04-13T18:35:30.454Z,8.22
2023-04-13T18:40:34.427Z,8.00
2023-04-13T18:45:36.001Z,7.75
2023-04-13T18:50:38.289Z,7.42
2023-04-13T18:55:40.207Z,7.09
2023-04-13T19:00:41.761Z,7.01
2023-04-13T19:05:43.419Z,6.91
2023-04-13T19:10:45.098Z,6.69
2023-04-13T19:15:47.003Z,6.40
2023-04-13T19:20:49.825Z,6.15
2023-04-13T19:25:51.463Z,6.04
2023-04-13T19:30:53.009Z,5.87
2023-04-13T19:35:54.550Z,5.70
2023-04-13T19:40:57.660Z,5.45
2023-04-13T19:45:59.245Z,5.33
2023-04-13T19:51:01.254Z,5.16
2023-04-13T19:56:05.240Z,4.99
2023-04-13T20:01:07.817Z,4.84
2023-04-13T20:06:09.503Z,4.69
2023-04-13T20:11:14.347Z,4.54
2023-04-13T20:16:17.226Z,4.38
2023-04-13T20:21:18.783Z,4.16
2023-04-13T20:26:22.481Z,4.04
2023-04-13T20:31:28.944Z,3.89
2023-04-13T20:36:31.383Z,3.73
2023-04-13T20:41:34.837Z,3.60
2023-04-13T20:46:36.843Z,3.45
2023-04-13T20:51:39.710Z,3.35
2023-04-13T20:56:42.257Z,3.24
2023-04-13T21:01:44.163Z,3.16
2023-04-13T21:06:46.821Z,3.09
2023-04-13T21:11:48.428Z,3.01
2023-04-13T21:16:54.342Z,2.89
2023-04-13T21:21:57.468Z,2.79
2023-04-13T21:26:58.978Z,2.71
2023-04-13T21:32:02.287Z,2.64
2023-04-13T21:37:03.956Z,2.54
2023-04-13T21:42:05.658Z,2.43
2023-04-13T21:47:07.182Z,2.34
2023-04-13T21:52:09.636Z,2.29
2023-04-13T21:57:11.617Z,2.28
2023-04-13T22:02:13.194Z,2.22
2023-04-13T22:07:14.833Z,2.17
2023-04-13T22:12:16.532Z,2.12
2023-04-13T22:17:18.042Z,2.16
2023-04-13T22:22:19.637Z,2.10
2023-04-13T22:27:21.774Z,2.03
2023-04-13T22:32:23.472Z,1.98
2023-04-13T22:37:31.606Z,1.94
2023-04-13T22:42:33.162Z,1.91
2023-04-13T22:47:35.003Z,1.86
2023-04-13T22:52:36.682Z,1.75
2023-04-13T22:57:38.219Z,1.73
2023-04-13T23:02:40.831Z,1.73
2023-04-13T23:07:42.554Z,1.71
2023-04-13T23:12:44.152Z,1.70
2023-04-13T23:17:45.764Z,1.71
2023-04-13T23:22:47.931Z,1.68
2023-04-13T23:27:49.450Z,1.60
2023-04-13T23:32:51.128Z,1.55
2023-04-13T23:37:52.692Z,1.49
2023-04-13T23:42:59.152Z,1.42
2023-04-13T23:48:00.809Z,1.44
2023-04-13T23:53:02.489Z,1.36
2023-04-13T23:58:04.123Z,1.28
